Terminal Aerodrome Forecast
Issued by NWS

Home | Current Version | Previous Version | Text Only | Print | Product List | Glossary On
Versions: 1 2 3 4 5 6 7 8 9 10 11 12 13 14
000
FTUS43 KDMX 271734
TAFMCW
TAF
KMCW 271734Z 2718/2818 20006KT P6SM SCT100 BKN250
     FM272300 VRB04KT P6SM VCTS SCT080CB BKN150CB
     FM280300 34004KT P6SM BKN200
     FM280800 36006KT P6SM BKN015=

USA.gov is the U.S. government's official web portal to all federal, state and local government web resources and services.